Saturday, July 21, 2018, 3:20 PM EDT
Back to Local

KMHT, Manchester Airport

Location: Manchester, NH, United States Lat: 42.933
Local Time: 3:20 PM EDT (19:20 GMT) Lon: -71.433
Time Zone: US/Eastern Elev: 232 ft

Show me the last for .
Show Decoded

2018-07-21 14:53 METAR KMHT 211853Z VRB04KT 10SM SCT050 BKN250 26/13 A3011 RMK AO2 SLP208
                 T02560133 =
2018-07-21 13:53 METAR KMHT 211753Z 13009KT 10SM FEW045 BKN250 26/12 A3013 RMK AO2 SLP213
                 T02610117 10261 20183 58010 =
2018-07-21 12:53 METAR KMHT 211653Z 15009KT 10SM FEW036 SCT150 26/12 A3014 RMK AO2 SLP217
                 T02560117 =
2018-07-21 11:53 METAR KMHT 211553Z 10009KT 10SM FEW036 SCT130 SCT200 26/12 A3015 RMK AO2 SLP220
                 T02560122 =
2018-07-21 10:53 METAR KMHT 211453Z 14006KT 10SM SCT036 SCT200 24/12 A3016 RMK AO2 SLP223
                 T02390122 50000 =
2018-07-21 09:53 METAR KMHT 211353Z VRB03KT 10SM SCT016 BKN200 23/15 A3016 RMK AO2 SLP224
                 T02280150 =
2018-07-21 08:53 METAR KMHT 211253Z 22004KT 10SM BKN016 21/15 A3016 RMK AO2 SLP225 T02060150 =
2018-07-21 07:53 METAR KMHT 211153Z 00000KT 10SM BKN016 18/16 A3016 RMK AO2 SLP223 T01830156
                 10189 20156 50002 =
2018-07-21 06:53 METAR KMHT 211053Z 00000KT 10SM BKN013 17/15 A3016 RMK AO2 SLP224 T01720150 =
2018-07-21 05:53 METAR KMHT 210953Z 01003KT 10SM FEW007 BKN013 16/14 A3016 RMK AO2 SLP223
                 T01610139 =
2018-07-21 04:53 METAR KMHT 210853Z 00000KT 10SM OVC006 16/14 A3015 RMK AO2 SLP221 T01610144
                 53005 =
2018-07-21 04:38 METAR KMHT 210838Z 00000KT 10SM BKN004 16/14 A3015 RMK AO2 T01610139 =
2018-07-21 04:20 METAR KMHT 210820Z 13003KT 10SM SCT008 16/13 A3014 RMK AO2 T01560133 =
2018-07-21 03:53 METAR KMHT 210753Z 00000KT 10SM CLR 16/14 A3014 RMK AO2 SLP216 T01610139 =
2018-07-21 02:53 METAR KMHT 210653Z 00000KT 10SM CLR 17/14 A3014 RMK AO2 SLP215 T01670139 =
2018-07-21 01:53 METAR KMHT 210553Z 00000KT 10SM CLR 17/14 A3014 RMK AO2 SLP215 T01720139 10244
                 20172 58004 =
2018-07-21 00:53 METAR KMHT 210453Z 00000KT 10SM CLR 18/14 A3014 RMK AO2 SLP217 T01780139
                 403000144 =
2018-07-20 23:53 METAR KMHT 210353Z 00000KT 10SM CLR 19/14 A3015 RMK AO2 SLP218 T01890139 =
2018-07-20 22:53 METAR KMHT 210253Z 11004KT 10SM CLR 20/14 A3015 RMK AO2 SLP219 T02000139 50006 =
2018-07-20 21:53 METAR KMHT 210153Z 00000KT 10SM CLR 21/14 A3015 RMK AO2 SLP219 T02110139 =
2018-07-20 20:53 METAR KMHT 210053Z 13005KT 10SM CLR 22/14 A3014 RMK AO2 SLP218 T02220144 =
2018-07-20 19:53 METAR KMHT 202353Z 12006KT 10SM CLR 24/14 A3013 RMK AO2 SLP213 T02440139 10300
                 20244 52006 =
2018-07-20 18:53 METAR KMHT 202253Z 14010KT 10SM FEW060 26/12 A3012 RMK AO2 SLP211 T02610117 =
2018-07-20 17:53 METAR KMHT 202153Z 13012KT 10SM FEW060 28/13 A3012 RMK AO2 SLP209 T02780128 =
2018-07-20 16:53 METAR KMHT 202053Z 10012KT 10SM FEW060 28/14 A3011 RMK AO2 SLP207 T02830144
                 57008 =
2018-07-20 15:53 METAR KMHT 201953Z 00000KT 10SM FEW060 29/12 A3012 RMK AO2 SLP209 T02940122 =

Support USWX by starting your Amazon purchase here.